Time;durP1;ratioP1;P1;durP2;ratioP2;P2;SDS_P1;SDS_P2;PMS_P1;PMS_P2;Temp;Humidity;BMP_temperature;BMP_pressure;BME280_temperature;BME280_humidity;BME280_pressure;Samples;Min_cycle;Max_cycle;Signal;HPM_P1;HPM_P2
2021/04/11 00:02:00;;;;;;;3.20;2.57;;;10.70;99.90;;;;;;5050954;28;20459;-66
2021/04/11 00:04:27;;;;;;;2.83;2.23;;;10.60;99.90;;;;;;5038100;28;20450;-66
2021/04/11 00:06:54;;;;;;;2.67;2.47;;;10.60;99.90;;;;;;5039887;28;20555;-67
2021/04/11 00:09:21;;;;;;;5.30;1.80;;;10.70;99.90;;;;;;5047147;28;20485;-67
2021/04/11 00:11:48;;;;;;;4.80;2.83;;;10.60;99.90;;;;;;5041962;28;20546;-66
2021/04/11 00:14:15;;;;;;;2.37;1.60;;;10.60;99.90;;;;;;5029749;28;20606;-66
2021/04/11 00:16:41;;;;;;;3.00;2.17;;;10.60;99.90;;;;;;5025903;28;20500;-68
2021/04/11 00:19:08;;;;;;;3.30;2.63;;;10.50;99.90;;;;;;5020797;28;20475;-66
2021/04/11 00:21:35;;;;;;;4.70;2.50;;;10.50;99.90;;;;;;5024200;28;21412;-66
2021/04/11 00:24:01;;;;;;;2.83;2.50;;;10.40;99.90;;;;;;5023746;28;20575;-68
2021/04/11 00:26:29;;;;;;;2.70;2.37;;;10.50;99.90;;;;;;5021435;28;20823;-66
2021/04/11 00:28:55;;;;;;;2.73;2.53;;;10.50;99.90;;;;;;5026504;28;20499;-66
2021/04/11 00:31:22;;;;;;;2.63;2.30;;;10.60;99.90;;;;;;5023028;28;20467;-70
2021/04/11 00:33:49;;;;;;;3.30;2.60;;;10.50;99.90;;;;;;5011797;28;20559;-66
2021/04/11 00:36:17;;;;;;;2.30;2.10;;;10.60;99.90;;;;;;5040781;28;20442;-67
2021/04/11 00:38:44;;;;;;;4.27;3.13;;;10.60;99.90;;;;;;5040742;28;20495;-67
2021/04/11 00:41:15;;;;;;;3.40;2.20;;;10.60;99.90;;;;;;5045515;28;20542;-68
2021/04/11 00:43:44;;;;;;;2.40;2.20;;;10.70;99.90;;;;;;5032536;28;21158;-69
2021/04/11 00:46:22;;;;;;;2.63;2.43;;;10.70;99.90;;;;;;5018689;28;20467;-66
2021/04/11 00:48:49;;;;;;;4.57;2.10;;;10.80;99.90;;;;;;5038034;28;20451;-66
2021/04/11 00:51:19;;;;;;;2.73;2.33;;;10.80;99.90;;;;;;5057710;28;20433;-67
2021/04/11 00:53:46;;;;;;;4.80;3.97;;;10.80;99.90;;;;;;5028568;28;20491;-67
2021/04/11 00:56:14;;;;;;;3.47;2.50;;;10.90;99.90;;;;;;5025297;28;20964;-68
2021/04/11 00:58:41;;;;;;;2.40;2.20;;;10.70;99.90;;;;;;5023982;28;20466;-67
2021/04/11 01:01:09;;;;;;;2.57;2.23;;;10.70;99.90;;;;;;5016205;28;20495;-65
2021/04/11 01:03:39;;;;;;;3.47;2.20;;;10.60;99.90;;;;;;5020274;28;20569;-69
2021/04/11 01:06:08;;;;;;;3.73;2.00;;;10.60;99.90;;;;;;5030876;28;20451;-66
2021/04/11 01:08:36;;;;;;;4.13;2.90;;;10.60;99.90;;;;;;5029825;28;20502;-66
2021/04/11 01:11:05;;;;;;;5.33;4.27;;;10.50;99.90;;;;;;5029062;28;20608;-68
2021/04/11 01:13:33;;;;;;;4.70;4.30;;;10.50;99.90;;;;;;5030438;28;20475;-66
2021/04/11 01:16:01;;;;;;;3.73;2.50;;;10.60;99.90;;;;;;5031818;28;20459;-66
2021/04/11 01:18:29;;;;;;;3.33;2.33;;;10.60;99.90;;;;;;5027153;28;20467;-66
2021/04/11 01:20:57;;;;;;;4.60;2.23;;;10.70;99.90;;;;;;5013742;28;20478;-67
2021/04/11 01:23:36;;;;;;;3.20;2.90;;;10.70;99.90;;;;;;5031661;28;20442;-69
2021/04/11 01:26:05;;;;;;;4.57;3.40;;;10.80;99.90;;;;;;5037435;28;20539;-65
2021/04/11 01:28:38;;;;;;;2.13;1.93;;;10.80;99.90;;;;;;5038640;28;20545;-67
2021/04/11 01:31:05;;;;;;;2.30;1.90;;;10.60;99.90;;;;;;5034682;28;20517;-67
2021/04/11 01:33:35;;;;;;;5.60;2.80;;;10.40;99.90;;;;;;5049491;28;20478;-67
2021/04/11 01:36:03;;;;;;;3.97;3.00;;;10.40;99.90;;;;;;5041167;28;20471;-67
2021/04/11 01:38:31;;;;;;;3.10;2.80;;;10.30;99.90;;;;;;5043229;28;20524;-66
2021/04/11 01:41:03;;;;;;;4.80;3.00;;;10.40;99.90;;;;;;5033341;28;20533;-69
2021/04/11 01:43:31;;;;;;;5.90;2.07;;;10.60;99.90;;;;;;5038546;28;20911;-67
2021/04/11 01:45:58;;;;;;;3.00;2.23;;;10.70;99.90;;;;;;5038050;28;20558;-69
2021/04/11 01:48:25;;;;;;;1.20;1.10;;;10.80;99.90;;;;;;5038856;28;20463;-68
2021/04/11 01:50:54;;;;;;;6.23;3.03;;;10.80;99.90;;;;;;5043565;28;20593;-67
2021/04/11 01:53:22;;;;;;;9.97;4.10;;;10.70;99.90;;;;;;5043987;28;21004;-67
2021/04/11 01:55:50;;;;;;;2.83;2.43;;;10.60;99.90;;;;;;5048611;28;20550;-66
2021/04/11 01:58:18;;;;;;;8.93;3.37;;;10.60;99.90;;;;;;5050958;28;20518;-67
2021/04/11 02:00:48;;;;;;;4.27;2.33;;;10.70;99.90;;;;;;5041161;28;20566;-66
2021/04/11 02:03:17;;;;;;;3.83;2.57;;;10.70;99.90;;;;;;5041646;28;20454;-66
2021/04/11 02:05:46;;;;;;;2.10;1.90;;;10.70;99.90;;;;;;5036485;28;20995;-69
2021/04/11 02:08:17;;;;;;;4.07;3.13;;;10.70;99.90;;;;;;5027382;28;20538;-67
2021/04/11 02:10:47;;;;;;;7.20;2.57;;;10.80;99.90;;;;;;5029227;28;20633;-69
2021/04/11 02:13:15;;;;;;;2.03;1.93;;;10.90;99.90;;;;;;5030034;28;20904;-68
2021/04/11 02:15:46;;;;;;;3.40;2.40;;;10.90;99.90;;;;;;5036424;28;20479;-67
2021/04/11 02:18:13;;;;;;;2.90;2.30;;;11.00;99.90;;;;;;5044494;28;20942;-67
2021/04/11 02:20:42;;;;;;;11.13;2.87;;;10.80;99.90;;;;;;5036919;28;21031;-68
2021/04/11 02:23:11;;;;;;;2.73;2.50;;;10.80;99.90;;;;;;5034171;28;20769;-70
2021/04/11 02:25:43;;;;;;;3.10;2.63;;;10.90;99.90;;;;;;5038335;28;20520;-69
2021/04/11 02:28:11;;;;;;;1.87;1.50;;;10.90;99.90;;;;;;5033549;28;20545;-70
2021/04/11 02:30:44;;;;;;;6.47;3.90;;;11.00;99.90;;;;;;5036247;28;20480;-68
2021/04/11 02:33:11;;;;;;;4.13;3.17;;;10.80;99.90;;;;;;5032744;28;20574;-67
2021/04/11 02:35:38;;;;;;;9.90;3.03;;;10.90;99.90;;;;;;5031495;28;22590;-70
2021/04/11 02:38:08;;;;;;;2.40;2.20;;;10.90;99.90;;;;;;5039705;28;20541;-67
2021/04/11 02:40:38;;;;;;;2.57;2.10;;;10.80;99.90;;;;;;5032932;28;20629;-66
2021/04/11 02:43:06;;;;;;;6.20;4.70;;;10.70;99.90;;;;;;5035292;28;20900;-68
2021/04/11 02:45:38;;;;;;;5.00;2.77;;;10.70;99.90;;;;;;5036132;28;20601;-70
2021/04/11 02:48:08;;;;;;;3.63;2.30;;;10.80;99.90;;;;;;5035847;28;20565;-69
2021/04/11 02:50:37;;;;;;;4.47;3.37;;;10.80;99.90;;;;;;5034926;28;20484;-72
2021/04/11 02:53:06;;;;;;;4.47;3.20;;;10.90;99.90;;;;;;5043792;28;20467;-67
2021/04/11 02:55:36;;;;;;;4.57;3.37;;;10.90;99.90;;;;;;5033530;28;20533;-70
2021/04/11 02:58:03;;;;;;;3.70;2.43;;;10.90;99.90;;;;;;5038075;28;20792;-68
2021/04/11 03:00:34;;;;;;;2.40;2.20;;;10.90;99.90;;;;;;5045247;28;20509;-67
2021/04/11 03:03:01;;;;;;;3.70;3.40;;;10.80;99.90;;;;;;5036991;28;20572;-67
2021/04/11 03:05:29;;;;;;;5.53;2.70;;;10.90;99.90;;;;;;5042771;28;20468;-68
2021/04/11 03:08:00;;;;;;;3.13;2.70;;;11.00;99.90;;;;;;5029894;28;20464;-67
2021/04/11 03:10:32;;;;;;;4.27;3.87;;;11.00;99.90;;;;;;5040860;28;20570;-67
2021/04/11 03:13:01;;;;;;;6.67;4.70;;;10.90;99.90;;;;;;5033057;28;21725;-67
2021/04/11 03:15:28;;;;;;;6.40;5.70;;;10.70;99.90;;;;;;5036615;28;20448;-68
2021/04/11 03:17:56;;;;;;;16.90;9.40;;;10.40;99.90;;;;;;5033574;28;20563;-66
2021/04/11 03:20:27;;;;;;;17.37;9.77;;;10.20;99.90;;;;;;5040419;28;20969;-69
2021/04/11 03:22:57;;;;;;;17.23;9.10;;;10.00;99.90;;;;;;5033459;28;20577;-67
2021/04/11 03:25:27;;;;;;;14.50;7.00;;;9.80;99.90;;;;;;5039190;28;20516;-67
2021/04/11 03:28:02;;;;;;;16.90;7.73;;;9.70;99.90;;;;;;5042280;28;20465;-66
2021/04/11 03:30:32;;;;;;;14.73;7.53;;;9.60;99.90;;;;;;5037961;28;20510;-66
2021/04/11 03:33:01;;;;;;;12.53;6.43;;;9.60;99.90;;;;;;5030200;28;20566;-68
2021/04/11 03:35:31;;;;;;;9.83;6.63;;;9.40;99.90;;;;;;5043563;28;20514;-66
2021/04/11 03:38:01;;;;;;;9.90;5.90;;;9.20;99.90;;;;;;5031047;28;20437;-65
2021/04/11 03:40:30;;;;;;;7.70;5.17;;;9.20;99.90;;;;;;5035071;28;20566;-67
2021/04/11 03:43:02;;;;;;;3.13;2.30;;;9.10;99.90;;;;;;5048735;28;20471;-66
2021/04/11 03:45:31;;;;;;;2.13;1.93;;;9.00;99.90;;;;;;5036929;28;21554;-67
2021/04/11 03:48:04;;;;;;;4.47;2.97;;;8.80;99.90;;;;;;5027323;28;20580;-68
2021/04/11 03:50:34;;;;;;;3.77;3.10;;;8.70;99.90;;;;;;5031426;28;20505;-67
2021/04/11 03:53:05;;;;;;;3.17;2.20;;;8.60;99.90;;;;;;5033899;28;20946;-69
2021/04/11 03:55:35;;;;;;;4.27;3.80;;;8.60;99.90;;;;;;5042622;28;20451;-69
2021/04/11 03:58:06;;;;;;;4.83;3.20;;;8.50;99.90;;;;;;5035187;28;20480;-68
2021/04/11 04:00:36;;;;;;;4.80;2.67;;;8.40;99.90;;;;;;5033705;28;20573;-67
2021/04/11 04:03:07;;;;;;;3.47;2.80;;;8.30;99.90;;;;;;5029099;28;20455;-65
2021/04/11 04:05:36;;;;;;;2.67;1.70;;;8.30;99.90;;;;;;5031671;28;20428;-68
2021/04/11 04:08:05;;;;;;;3.87;2.50;;;8.30;99.90;;;;;;5041542;28;20472;-69
2021/04/11 04:10:35;;;;;;;3.57;1.77;;;8.20;99.90;;;;;;5038904;28;20528;-66
2021/04/11 04:13:28;;;;;;;3.60;2.50;;;8.20;99.90;;;;;;5040809;28;20458;-67
2021/04/11 04:16:12;;;;;;;6.60;2.43;;;8.10;99.90;;;;;;5031388;28;20934;-67
2021/04/11 04:18:56;;;;;;;5.63;2.80;;;7.90;99.90;;;;;;5036998;28;20570;-65
2021/04/11 04:21:35;;;;;;;3.33;2.97;;;7.80;99.90;;;;;;5031700;28;20413;-67
2021/04/11 04:24:11;;;;;;;3.20;2.47;;;7.70;99.90;;;;;;5044634;28;20978;-66
2021/04/11 04:26:44;;;;;;;3.33;2.40;;;7.70;99.90;;;;;;5043990;28;21045;-68
2021/04/11 04:29:27;;;;;;;4.43;3.20;;;7.70;99.90;;;;;;5036719;28;21040;-68
2021/04/11 04:32:23;;;;;;;1.87;1.77;;;7.50;99.90;;;;;;5030801;28;20470;-67
2021/04/11 04:35:02;;;;;;;4.10;2.43;;;7.60;99.90;;;;;;5034722;28;20566;-66
2021/04/11 04:37:42;;;;;;;2.77;1.50;;;7.50;99.90;;;;;;5031516;28;20501;-66
2021/04/11 04:40:16;;;;;;;3.00;2.70;;;7.40;99.90;;;;;;5037906;28;21082;-67
2021/04/11 04:42:50;;;;;;;3.63;2.50;;;7.30;99.90;;;;;;5025148;28;20971;-68
2021/04/11 04:45:28;;;;;;;2.70;1.70;;;7.30;99.90;;;;;;5039188;28;20486;-69
2021/04/11 04:48:02;;;;;;;2.57;1.90;;;7.40;99.90;;;;;;5030008;28;20503;-68
2021/04/11 04:50:34;;;;;;;2.73;2.10;;;7.50;99.90;;;;;;5038815;28;20857;-66
2021/04/11 04:53:07;;;;;;;2.27;2.07;;;7.50;99.90;;;;;;5044653;28;20891;-69
2021/04/11 04:55:39;;;;;;;1.93;1.67;;;7.40;99.90;;;;;;5036104;28;20562;-66
2021/04/11 04:58:11;;;;;;;1.60;1.20;;;7.30;99.90;;;;;;5032820;28;20844;-66
2021/04/11 05:00:41;;;;;;;3.00;2.37;;;7.30;99.90;;;;;;5031302;28;20505;-69
2021/04/11 05:03:12;;;;;;;2.90;1.77;;;7.20;99.90;;;;;;5041448;28;21209;-68
2021/04/11 05:05:43;;;;;;;3.90;2.10;;;7.10;99.90;;;;;;5029926;28;20484;-69
2021/04/11 05:08:14;;;;;;;1.93;1.30;;;7.10;99.90;;;;;;5031174;28;20458;-65
2021/04/11 05:10:46;;;;;;;3.90;2.60;;;7.10;99.90;;;;;;5039787;28;21027;-66
2021/04/11 05:13:18;;;;;;;2.17;1.60;;;7.10;99.90;;;;;;5044961;28;20458;-65
2021/04/11 05:15:47;;;;;;;2.27;1.87;;;7.10;99.90;;;;;;5034687;28;20673;-66
2021/04/11 05:18:17;;;;;;;2.13;1.93;;;7.20;99.90;;;;;;5040259;28;20441;-69
2021/04/11 05:20:49;;;;;;;4.57;2.27;;;7.10;99.90;;;;;;5035711;28;20544;-68
2021/04/11 05:23:21;;;;;;;7.27;3.53;;;7.20;99.90;;;;;;5033536;28;20481;-68
2021/04/11 05:25:53;;;;;;;3.00;2.70;;;7.20;99.90;;;;;;5031687;28;20491;-65
2021/04/11 05:28:24;;;;;;;4.60;3.40;;;7.10;99.90;;;;;;5040790;28;20546;-67
2021/04/11 05:30:57;;;;;;;5.87;3.23;;;6.80;99.90;;;;;;5037302;28;20573;-66
2021/04/11 05:33:25;;;;;;;3.20;2.67;;;6.80;99.90;;;;;;5039064;28;20510;-67
2021/04/11 05:36:00;;;;;;;3.80;1.97;;;6.80;99.90;;;;;;5042528;28;20963;-67
2021/04/11 05:38:35;;;;;;;3.93;3.43;;;6.70;99.90;;;;;;5033753;28;20483;-69
2021/04/11 05:41:10;;;;;;;3.20;2.63;;;6.70;99.90;;;;;;5042615;28;20514;-67
2021/04/11 05:43:42;;;;;;;2.13;1.67;;;6.70;99.90;;;;;;5044915;28;20456;-67
2021/04/11 05:46:20;;;;;;;2.23;1.83;;;6.60;99.90;;;;;;5093974;27;21097;-67
2021/04/11 05:48:53;;;;;;;2.33;2.03;;;6.70;99.90;;;;;;5083865;28;20864;-67
2021/04/11 05:51:25;;;;;;;2.77;2.17;;;6.70;99.90;;;;;;5106849;27;20459;-66
2021/04/11 05:53:57;;;;;;;2.47;2.27;;;6.70;99.90;;;;;;5093579;27;21087;-67
2021/04/11 05:56:26;;;;;;;3.37;2.33;;;6.70;99.90;;;;;;5106338;27;21004;-69
2021/04/11 05:58:57;;;;;;;3.87;3.47;;;6.60;99.90;;;;;;5102308;27;20479;-69
2021/04/11 06:01:29;;;;;;;5.73;3.00;;;6.60;99.90;;;;;;5112705;27;20464;-69
2021/04/11 06:04:01;;;;;;;4.53;3.57;;;6.60;99.90;;;;;;5118451;27;20448;-71
2021/04/11 06:06:31;;;;;;;3.70;3.23;;;6.50;99.90;;;;;;5111728;27;20772;-67
2021/04/11 06:09:06;;;;;;;3.67;3.37;;;6.60;99.90;;;;;;5117835;27;20447;-67
2021/04/11 06:11:40;;;;;;;2.50;2.30;;;6.60;99.90;;;;;;5109059;27;20822;-69
2021/04/11 06:14:12;;;;;;;3.40;2.67;;;6.50;99.90;;;;;;5118654;27;20946;-67
2021/04/11 06:16:39;;;;;;;5.40;4.17;;;6.40;99.90;;;;;;5116555;27;20482;-69
2021/04/11 06:19:08;;;;;;;3.37;3.17;;;6.30;99.90;;;;;;5100415;28;20511;-68
2021/04/11 06:21:43;;;;;;;5.17;3.10;;;6.20;99.90;;;;;;5116924;27;20491;-68
2021/04/11 06:24:26;;;;;;;4.30;3.47;;;6.30;99.90;;;;;;5122332;27;20458;-69
2021/04/11 06:27:02;;;;;;;4.80;2.70;;;6.20;99.90;;;;;;5108710;27;20484;-66
2021/04/11 06:29:33;;;;;;;10.87;6.33;;;6.20;99.90;;;;;;5118406;27;21042;-65
2021/04/11 06:32:07;;;;;;;13.40;5.37;;;6.10;99.90;;;;;;5121198;27;20442;-65
2021/04/11 06:34:41;;;;;;;12.37;6.17;;;6.00;99.90;;;;;;5116413;27;20460;-69
2021/04/11 06:37:12;;;;;;;14.27;7.57;;;6.00;99.90;;;;;;5115044;27;20986;-66
2021/04/11 06:39:41;;;;;;;16.90;7.10;;;5.90;99.90;;;;;;5111797;27;20447;-67
2021/04/11 06:42:32;;;;;;;9.80;5.93;;;5.80;99.90;;;;;;5117176;27;20488;-66
2021/04/11 06:45:25;;;;;;;6.67;3.23;;;5.90;99.90;;;;;;5116726;27;20533;-67
2021/04/11 06:48:35;;;;;;;7.63;3.53;;;5.80;99.90;;;;;;5109790;27;20525;-67
2021/04/11 06:51:31;;;;;;;6.20;4.00;;;5.70;99.90;;;;;;5113425;27;20476;-67
2021/04/11 06:54:47;;;;;;;11.83;5.87;;;5.80;99.90;;;;;;5126869;27;20444;-68
2021/04/11 06:57:36;;;;;;;9.97;5.57;;;5.80;99.90;;;;;;5068345;27;20459;-66
2021/04/11 07:00:13;;;;;;;9.80;5.43;;;5.90;99.90;;;;;;5100976;27;20484;-69
2021/04/11 07:03:24;;;;;;;7.57;6.20;;;5.70;99.90;;;;;;5098863;27;20477;-68
2021/04/11 07:06:16;;;;;;;9.33;5.80;;;5.80;99.90;;;;;;5090311;27;20529;-67
2021/04/11 07:09:04;;;;;;;8.27;5.30;;;5.80;99.90;;;;;;5074383;27;20457;-65
2021/04/11 07:12:19;;;;;;;12.80;6.10;;;6.00;99.90;;;;;;5092541;27;21730;-66
2021/04/11 07:15:31;;;;;;;14.27;4.53;;;6.00;99.90;;;;;;5018052;28;20458;-67
2021/04/11 07:18:38;;;;;;;5.83;3.10;;;5.70;99.90;;;;;;5041079;27;20463;-66
2021/04/11 07:21:39;;;;;;;5.00;3.23;;;5.70;99.90;;;;;;5081273;27;21024;-66
2021/04/11 07:24:40;;;;;;;5.57;3.63;;;5.60;99.90;;;;;;5098657;27;20430;-69
2021/04/11 07:27:20;;;;;;;9.80;5.57;;;5.40;99.90;;;;;;5087206;27;20455;-66
2021/04/11 07:30:02;;;;;;;4.30;3.33;;;5.50;99.90;;;;;;5096862;28;20482;-69
2021/04/11 07:32:50;;;;;;;6.57;3.57;;;5.40;99.90;;;;;;5089539;28;20464;-67
2021/04/11 07:35:36;;;;;;;11.67;5.37;;;5.50;99.90;;;;;;5108482;27;20478;-67
2021/04/11 07:38:14;;;;;;;6.23;4.17;;;5.60;99.90;;;;;;5116510;27;20461;-68
2021/04/11 07:40:56;;;;;;;7.07;3.63;;;5.50;99.90;;;;;;5094027;27;20506;-68
2021/04/11 07:43:31;;;;;;;5.33;4.30;;;5.40;99.90;;;;;;5082495;27;20791;-69
2021/04/11 07:46:34;;;;;;;6.70;4.33;;;5.40;99.90;;;;;;5094838;27;20514;-69
2021/04/11 07:49:26;;;;;;;7.93;3.83;;;5.70;99.90;;;;;;5093493;27;20446;-68
2021/04/11 07:52:08;;;;;;;5.70;3.80;;;5.90;99.90;;;;;;5051019;27;20971;-67
2021/04/11 07:55:01;;;;;;;3.27;2.90;;;5.90;99.90;;;;;;5097010;27;20420;-66
2021/04/11 07:57:46;;;;;;;4.07;3.00;;;5.90;99.90;;;;;;5091413;27;20492;-66
2021/04/11 08:00:27;;;;;;;4.73;3.67;;;5.80;99.90;;;;;;5096752;27;20496;-67
2021/04/11 08:03:15;;;;;;;2.70;2.50;;;5.80;99.90;;;;;;5097275;27;20418;-67
2021/04/11 08:06:12;;;;;;;6.20;3.43;;;5.90;99.90;;;;;;5092129;27;20453;-67
2021/04/11 08:09:10;;;;;;;3.73;1.63;;;5.90;99.90;;;;;;5087814;27;20543;-68
2021/04/11 08:12:18;;;;;;;4.97;4.47;;;6.00;99.90;;;;;;5086485;27;20428;-68
2021/04/11 08:14:53;;;;;;;3.33;2.83;;;5.70;99.90;;;;;;5061554;27;20540;-67
2021/04/11 08:17:47;;;;;;;5.90;4.63;;;5.80;99.90;;;;;;5088984;27;20965;-68
2021/04/11 08:20:42;;;;;;;4.50;3.50;;;5.80;99.90;;;;;;5080801;28;21073;-67
2021/04/11 08:23:42;;;;;;;4.40;4.00;;;6.00;99.90;;;;;;5087433;27;20424;-68
2021/04/11 08:26:30;;;;;;;3.00;2.43;;;6.10;99.90;;;;;;5093774;27;20501;-67
2021/04/11 08:29:18;;;;;;;3.10;2.80;;;6.00;99.90;;;;;;5107294;27;21077;-67
2021/04/11 08:32:11;;;;;;;5.13;4.13;;;5.80;99.90;;;;;;5083536;27;20937;-67
2021/04/11 08:35:08;;;;;;;7.70;4.70;;;5.90;99.90;;;;;;5080051;27;21420;-68
2021/04/11 08:38:13;;;;;;;9.20;4.67;;;6.10;99.90;;;;;;5089846;27;20917;-66
2021/04/11 08:41:08;;;;;;;4.60;3.47;;;6.10;99.90;;;;;;5091212;27;20463;-67
2021/04/11 08:43:51;;;;;;;8.37;4.60;;;6.00;99.90;;;;;;5091652;28;20444;-68
2021/04/11 08:46:32;;;;;;;4.90;3.23;;;5.80;99.90;;;;;;5089014;27;21059;-67
2021/04/11 08:49:14;;;;;;;4.00;3.00;;;5.80;99.90;;;;;;5077377;27;20516;-67
2021/04/11 08:51:50;;;;;;;8.80;4.83;;;5.90;99.90;;;;;;5083183;27;20484;-67
2021/04/11 08:54:26;;;;;;;9.50;4.40;;;5.90;99.90;;;;;;5082439;28;20550;-67
2021/04/11 08:56:59;;;;;;;5.40;4.37;;;6.10;99.90;;;;;;5082594;27;20434;-68
2021/04/11 08:59:36;;;;;;;5.10;3.37;;;6.10;99.90;;;;;;5088760;27;20465;-68
2021/04/11 09:02:32;;;;;;;3.57;2.63;;;6.20;99.90;;;;;;5089365;27;21525;-68
2021/04/11 09:05:10;;;;;;;5.43;3.20;;;6.20;99.90;;;;;;5083767;27;20514;-67
2021/04/11 09:07:50;;;;;;;2.30;2.10;;;6.10;99.90;;;;;;5095533;27;20719;-68
2021/04/11 09:10:29;;;;;;;2.40;2.20;;;6.00;99.90;;;;;;5101698;27;20537;-67
2021/04/11 09:13:07;;;;;;;4.63;1.43;;;6.00;99.90;;;;;;5101008;27;20502;-68
2021/04/11 09:15:44;;;;;;;2.70;2.30;;;6.00;99.90;;;;;;5076679;27;20506;-65
2021/04/11 09:18:29;;;;;;;2.40;2.20;;;6.00;99.90;;;;;;5087722;27;20807;-66
2021/04/11 09:21:24;;;;;;;3.00;2.03;;;5.90;99.90;;;;;;5074978;27;20477;-66
2021/04/11 09:24:00;;;;;;;3.40;1.90;;;6.00;99.90;;;;;;5084454;28;20509;-68
2021/04/11 09:27:04;;;;;;;2.40;1.43;;;5.90;99.90;;;;;;5080925;28;20461;-67
2021/04/11 09:29:36;;;;;;;2.10;1.93;;;5.90;99.90;;;;;;5017992;28;20442;-67
2021/04/11 09:32:26;;;;;;;2.70;2.43;;;5.80;99.90;;;;;;5084844;27;20425;-66
2021/04/11 09:35:16;;;;;;;2.00;1.73;;;5.70;99.90;;;;;;5078701;28;20428;-67
2021/04/11 09:38:18;;;;;;;1.53;1.20;;;5.90;99.90;;;;;;5082881;28;20435;-68
2021/04/11 09:41:06;;;;;;;3.10;2.20;;;6.00;99.90;;;;;;5080308;28;20453;-67
2021/04/11 09:44:13;;;;;;;1.30;1.20;;;6.10;99.90;;;;;;5088765;28;20423;-69
2021/04/11 09:46:55;;;;;;;2.27;1.73;;;6.20;99.90;;;;;;5076966;28;20476;-67
2021/04/11 09:49:40;;;;;;;2.23;1.73;;;6.30;99.90;;;;;;5087769;28;20476;-68
2021/04/11 09:52:34;;;;;;;2.00;1.80;;;6.30;99.90;;;;;;5085069;28;20629;-67
2021/04/11 09:55:11;;;;;;;1.63;1.43;;;6.30;99.90;;;;;;5084277;28;20420;-68
2021/04/11 09:58:04;;;;;;;1.03;0.73;;;6.30;99.90;;;;;;5080404;28;20448;-68
2021/04/11 10:00:35;;;;;;;1.90;1.80;;;6.40;99.90;;;;;;5069668;28;20472;-67
2021/04/11 10:03:32;;;;;;;1.50;1.30;;;6.20;99.90;;;;;;5073300;28;20453;-68
2021/04/11 10:06:15;;;;;;;1.63;1.30;;;6.10;99.90;;;;;;5083088;28;20465;-67
2021/04/11 10:09:06;;;;;;;1.87;1.47;;;6.10;99.90;;;;;;5078218;28;20541;-68
2021/04/11 10:11:47;;;;;;;1.57;1.47;;;6.10;99.90;;;;;;5088446;28;20461;-67
2021/04/11 10:14:35;;;;;;;1.80;1.30;;;6.20;99.90;;;;;;5086360;28;21142;-67
2021/04/11 10:17:08;;;;;;;1.10;0.90;;;6.10;99.90;;;;;;5096209;28;20875;-67
2021/04/11 10:19:48;;;;;;;1.50;1.40;;;5.90;99.90;;;;;;5095225;28;20512;-67
2021/04/11 10:22:37;;;;;;;1.17;0.93;;;6.00;99.90;;;;;;5082003;28;20450;-68
2021/04/11 10:25:19;;;;;;;1.17;1.07;;;6.10;99.90;;;;;;5088180;28;20485;-67
2021/04/11 10:28:07;;;;;;;1.50;1.20;;;6.40;99.90;;;;;;5088603;28;20489;-67
2021/04/11 10:30:36;;;;;;;1.77;1.43;;;6.40;99.90;;;;;;5083708;28;20472;-69
2021/04/11 10:33:10;;;;;;;2.30;1.53;;;6.50;99.90;;;;;;5090841;27;20607;-67
2021/04/11 10:35:43;;;;;;;1.40;1.30;;;6.70;99.90;;;;;;5087154;27;20974;-67
2021/04/11 10:38:15;;;;;;;4.03;2.43;;;6.80;99.90;;;;;;5084337;27;20450;-67
2021/04/11 10:41:12;;;;;;;1.53;1.43;;;6.90;99.90;;;;;;5090845;27;20888;-69
2021/04/11 10:44:01;;;;;;;1.40;1.10;;;7.00;99.90;;;;;;5075093;27;20526;-68
2021/04/11 10:46:35;;;;;;;1.40;1.00;;;7.00;99.90;;;;;;5081364;27;20439;-68
2021/04/11 10:49:27;;;;;;;3.23;1.93;;;6.90;99.90;;;;;;5089177;27;20452;-69
2021/04/11 10:52:22;;;;;;;6.53;2.03;;;6.90;99.90;;;;;;5084481;27;20515;-69
2021/04/11 10:55:16;;;;;;;1.40;1.30;;;6.70;99.90;;;;;;5093645;27;20483;-68
2021/04/11 10:58:15;;;;;;;1.03;0.90;;;6.70;99.90;;;;;;5075638;27;20544;-68
2021/04/11 11:00:54;;;;;;;1.20;1.00;;;6.80;99.90;;;;;;5049668;27;20481;-68
2021/04/11 11:03:49;;;;;;;1.47;1.37;;;6.90;99.90;;;;;;5084855;27;20548;-68
2021/04/11 11:06:58;;;;;;;1.67;1.37;;;6.90;99.90;;;;;;5093783;27;20926;-69
2021/04/11 11:09:29;;;;;;;2.00;1.90;;;7.00;99.90;;;;;;5100892;27;20475;-68
2021/04/11 11:12:16;;;;;;;1.50;1.20;;;7.00;99.90;;;;;;5086381;27;20515;-68
2021/04/11 11:15:05;;;;;;;1.53;1.30;;;6.90;99.90;;;;;;5079235;27;20448;-69
2021/04/11 11:17:48;;;;;;;2.37;2.00;;;6.80;99.90;;;;;;5091943;27;20549;-68
2021/04/11 11:20:26;;;;;;;1.53;1.43;;;6.70;99.90;;;;;;5087547;27;20467;-69
2021/04/11 11:23:25;;;;;;;2.97;2.13;;;7.00;99.90;;;;;;5075887;28;20485;-68
2021/04/11 11:26:18;;;;;;;1.30;1.10;;;7.10;99.90;;;;;;5082006;27;20563;-68
2021/04/11 11:29:10;;;;;;;1.60;1.50;;;6.90;99.90;;;;;;5077805;27;21533;-69
2021/04/11 11:31:50;;;;;;;2.50;2.07;;;6.90;99.90;;;;;;5077122;28;20998;-69
2021/04/11 11:34:40;;;;;;;1.43;1.33;;;7.10;99.90;;;;;;5078293;27;20444;-68
2021/04/11 11:37:31;;;;;;;3.97;1.93;;;6.90;99.90;;;;;;5077683;27;20453;-68
2021/04/11 11:40:07;;;;;;;1.40;1.10;;;6.70;99.90;;;;;;5081041;27;20492;-68
2021/04/11 11:42:43;;;;;;;1.20;1.10;;;6.60;99.90;;;;;;5076025;27;20508;-69
2021/04/11 11:45:18;;;;;;;2.47;1.83;;;6.60;99.90;;;;;;5075465;27;20454;-68
2021/04/11 11:47:57;;;;;;;1.80;1.07;;;6.80;99.90;;;;;;5077438;27;20482;-68
2021/04/11 11:50:29;;;;;;;2.93;2.70;;;6.80;99.90;;;;;;5074104;27;20484;-68
2021/04/11 11:53:02;;;;;;;3.93;1.40;;;6.80;99.90;;;;;;5086811;27;20431;-68
2021/04/11 11:55:33;;;;;;;2.50;1.67;;;6.90;99.90;;;;;;5075866;27;21041;-68
2021/04/11 11:58:08;;;;;;;1.67;1.20;;;7.00;99.90;;;;;;5076300;27;20906;-69
2021/04/11 12:00:38;;;;;;;1.70;1.60;;;7.00;99.90;;;;;;5077608;27;20459;-67
2021/04/11 12:03:25;;;;;;;1.37;1.17;;;6.70;99.90;;;;;;5081019;27;20435;-68
2021/04/11 12:06:03;;;;;;;3.13;1.43;;;6.40;99.90;;;;;;5090146;27;20455;-68
2021/04/11 12:08:42;;;;;;;2.13;1.87;;;6.70;99.90;;;;;;5085870;27;20481;-67
2021/04/11 12:11:13;;;;;;;1.53;1.43;;;6.60;99.90;;;;;;5092089;27;20967;-69
2021/04/11 12:13:48;;;;;;;2.60;1.50;;;6.60;99.90;;;;;;5088250;27;20439;-69
2021/04/11 12:16:22;;;;;;;2.10;1.67;;;6.80;99.90;;;;;;5092465;27;20522;-68
2021/04/11 12:18:57;;;;;;;1.87;1.67;;;7.00;99.90;;;;;;5093372;28;20877;-67
2021/04/11 12:21:33;;;;;;;6.50;1.37;;;7.20;99.90;;;;;;5100625;27;20483;-68
2021/04/11 12:24:04;;;;;;;1.90;1.70;;;6.90;99.90;;;;;;5102206;27;20788;-66
2021/04/11 12:26:32;;;;;;;1.37;1.20;;;6.90;99.90;;;;;;5088486;27;20439;-68
2021/04/11 12:29:07;;;;;;;1.63;1.50;;;7.10;99.90;;;;;;5081823;28;20979;-67
2021/04/11 12:31:40;;;;;;;2.93;1.70;;;6.90;99.90;;;;;;5088446;28;20427;-66
2021/04/11 12:34:19;;;;;;;2.23;1.30;;;7.00;99.90;;;;;;5099198;27;20780;-68
2021/04/11 12:36:55;;;;;;;2.80;2.47;;;7.10;99.90;;;;;;5085624;27;20451;-68
2021/04/11 12:39:25;;;;;;;2.03;1.70;;;7.20;99.90;;;;;;5091662;27;20455;-69
2021/04/11 12:42:09;;;;;;;1.50;1.40;;;7.40;99.90;;;;;;5083881;27;20454;-66
2021/04/11 12:44:40;;;;;;;3.93;1.17;;;7.60;99.90;;;;;;5090187;27;20455;-68
2021/04/11 12:47:20;;;;;;;1.30;0.93;;;7.70;99.90;;;;;;5085434;27;20431;-68
2021/04/11 12:49:55;;;;;;;2.80;1.53;;;7.70;99.90;;;;;;5089293;27;20472;-68
2021/04/11 12:52:30;;;;;;;2.53;1.90;;;7.80;99.90;;;;;;5095774;27;20459;-67
2021/04/11 12:55:05;;;;;;;1.50;1.40;;;7.90;99.90;;;;;;5097614;28;20435;-68
2021/04/11 12:57:36;;;;;;;2.70;2.17;;;8.10;99.90;;;;;;5094018;27;20457;-69
2021/04/11 13:00:09;;;;;;;1.70;1.50;;;8.30;99.90;;;;;;5109094;27;20469;-68
2021/04/11 13:02:48;;;;;;;2.03;1.60;;;8.10;99.90;;;;;;5099975;27;20453;-67
2021/04/11 13:05:20;;;;;;;4.83;2.40;;;8.00;99.90;;;;;;5093191;27;20458;-68
2021/04/11 13:07:54;;;;;;;6.17;3.53;;;7.90;99.90;;;;;;5097767;27;20542;-67
2021/04/11 13:10:27;;;;;;;5.87;2.70;;;7.80;99.90;;;;;;5107276;27;20519;-68
2021/04/11 13:13:08;;;;;;;9.03;4.70;;;7.80;99.90;;;;;;5104117;27;20983;-68
2021/04/11 13:15:40;;;;;;;2.57;2.37;;;7.70;99.90;;;;;;5095449;27;20464;-66
2021/04/11 13:18:19;;;;;;;3.37;2.27;;;7.80;99.90;;;;;;5100064;27;20438;-68
2021/04/11 13:21:00;;;;;;;3.60;2.40;;;7.90;99.90;;;;;;5100811;27;20861;-68
2021/04/11 13:23:31;;;;;;;7.20;3.77;;;7.90;99.90;;;;;;5104869;27;20847;-67
2021/04/11 13:26:03;;;;;;;1.63;1.47;;;7.80;99.90;;;;;;5105562;28;20478;-68
2021/04/11 13:28:34;;;;;;;2.80;2.10;;;7.80;99.90;;;;;;5104636;27;20455;-68
2021/04/11 13:31:09;;;;;;;2.00;1.80;;;7.70;99.90;;;;;;5100086;27;20538;-67
2021/04/11 13:33:45;;;;;;;6.60;2.30;;;7.90;99.90;;;;;;5103566;27;20767;-69
2021/04/11 13:36:26;;;;;;;2.60;1.50;;;7.90;99.90;;;;;;5102923;28;20423;-68
2021/04/11 13:39:01;;;;;;;1.77;1.60;;;7.70;99.90;;;;;;5103217;28;20468;-67
2021/04/11 13:41:43;;;;;;;1.87;1.67;;;7.70;99.90;;;;;;5101383;27;20992;-68
2021/04/11 13:44:25;;;;;;;5.77;2.50;;;7.60;99.90;;;;;;5100820;28;20448;-67
2021/04/11 13:47:00;;;;;;;1.60;1.40;;;7.60;99.90;;;;;;5096289;28;20471;-67